»·PEaware :: N172EL KSNA-KBUR

N172EL :: KSNA-KBUR

FLIGHT INFORMATION

Flight Status: Arrived
Operator: Privately registered:
United States
More flights under this callsign
Pilot: William W. (20687)
Aircraft: CESSNA 172 SKYHAWK
(C172)
More flights by this aircraft type
Origin: KSNA John Wayne-Orange Co
United States
Destination: KBUR Bob Hope-Burbank
United States
More flights between these airports :: More routes between these airports
Route: SLI V23 POPPR SMO125R SMO SMO311R SILEX
File this flight plan on PilotEdge
Remarks: I-3 to kbur
Altitude:
(Current/Filed)
4,000ft
Speed:
(Current/Filed)
115kts
Departed: 06-Oct-18 01:51 PM
Arrived: 06-Oct-18 02:31 PM
Distance/Time
Traveled:
40nm/0:39
Distance/Time
To Go:
Arrived

Flight Plot

Page will automatically refresh every two minutes.


Map Options




Map Legend


Flown Route
Filed Route
Departure Airport
Arrival Airport
Navaid (VOR, NDB)
Fix

Horizontal Profiles

Position Reports

Time Latitude Longitude Heading Altitude Ground
Speed
06-Oct-18 13:33 33.676028 -117.871113 40 60ft 0kts
06-Oct-18 13:34 33.676028 -117.871113 40 60ft 0kts
06-Oct-18 13:35 33.676028 -117.871113 40 60ft 0kts
06-Oct-18 13:36 33.676028 -117.871113 40 60ft 0kts
06-Oct-18 13:37 33.676028 -117.871113 40 60ft 0kts
06-Oct-18 13:38 33.676028 -117.871113 40 60ft 0kts
06-Oct-18 13:39 33.676028 -117.871113 40 60ft 0kts
06-Oct-18 13:40 33.676028 -117.871113 40 60ft 0kts
06-Oct-18 13:41 33.676028 -117.871113 40 60ft 0kts
06-Oct-18 13:42 33.676028 -117.871113 40 60ft 0kts
06-Oct-18 13:43 33.676028 -117.871113 40 60ft 0kts
06-Oct-18 13:44 33.676028 -117.871113 40 60ft 0kts
06-Oct-18 13:45 33.676028 -117.871113 40 60ft 0kts
06-Oct-18 13:46 33.676028 -117.871113 40 60ft 0kts
06-Oct-18 13:47 33.676028 -117.871113 40 60ft 0kts
06-Oct-18 13:48 33.676127 -117.870923 72 60ft 7kts
06-Oct-18 13:49 33.678534 -117.868520 28 60ft 16kts
06-Oct-18 13:50 33.681221 -117.866575 98 60ft 0kts
06-Oct-18 13:51 33.681221 -117.866575 98 60ft 0kts
06-Oct-18 13:52 33.680216 -117.865917 206 60ft 16kts
06-Oct-18 13:53 33.666240 -117.875323 206 535ft 82kts
06-Oct-18 13:54 33.653485 -117.895291 230 1652ft 73kts
06-Oct-18 13:55 33.642215 -117.915801 230 2635ft 75kts
06-Oct-18 13:56 33.632914 -117.937939 276 3558ft 84kts
06-Oct-18 13:57 33.640604 -117.968563 280 3986ft 117kts
06-Oct-18 13:58 33.649602 -118.005876 280 3977ft 114kts
06-Oct-18 13:59 33.654848 -118.041988 236 3980ft 105kts
06-Oct-18 14:00 33.655262 -118.073694 317 3973ft 120kts
06-Oct-18 14:01 33.685506 -118.090530 307 3971ft 117kts
06-Oct-18 14:02 33.701773 -118.122548 279 3975ft 112kts
06-Oct-18 14:03 33.720631 -118.152860 319 3969ft 122kts
06-Oct-18 14:04 33.749571 -118.174847 320 3965ft 123kts
06-Oct-18 14:05 33.769911 -118.205323 317 3966ft 124kts
06-Oct-18 14:06 33.796252 -118.232407 319 3963ft 126kts
06-Oct-18 14:07 33.821951 -118.259298 323 3958ft 120kts
06-Oct-18 14:08 33.844277 -118.287454 328 3996ft 114kts
06-Oct-18 14:09 33.870348 -118.302710 314 3995ft 113kts
06-Oct-18 14:10 33.892315 -118.328988 319 3994ft 111kts
06-Oct-18 14:11 33.915211 -118.353149 319 3990ft 109kts
06-Oct-18 14:12 33.937445 -118.377009 318 3987ft 108kts
06-Oct-18 14:13 33.959749 -118.401256 317 3986ft 107kts
06-Oct-18 14:14 33.981916 -118.425460 316 3986ft 107kts
06-Oct-18 14:15 34.004397 -118.450079 313 3969ft 115kts
06-Oct-18 14:16 34.028048 -118.476242 311 3965ft 115kts
06-Oct-18 14:17 34.051840 -118.502544 312 3962ft 115kts
06-Oct-18 14:18 34.075444 -118.528550 311 3960ft 115kts
06-Oct-18 14:19 34.098631 -118.554268 312 3959ft 111kts
06-Oct-18 14:20 34.120488 -118.579344 311 3994ft 108kts
06-Oct-18 14:21 34.142094 -118.604734 311 3994ft 108kts
06-Oct-18 14:22 34.163172 -118.630254 310 3986ft 108kts
06-Oct-18 14:23 34.187675 -118.619668 61 3891ft 120kts
06-Oct-18 14:24 34.199699 -118.582017 88 3305ft 123kts
06-Oct-18 14:25 34.199098 -118.546008 87 3008ft 87kts
06-Oct-18 14:26 34.198933 -118.516548 89 3011ft 88kts
06-Oct-18 14:27 34.198727 -118.486728 90 2671ft 79kts
06-Oct-18 14:28 34.198572 -118.461960 91 2274ft 71kts
06-Oct-18 14:29 34.198396 -118.437393 92 1812ft 83kts
06-Oct-18 14:30 34.198410 -118.410522 92 1467ft 87kts
06-Oct-18 14:31 34.198295 -118.386717 91 1095ft 59kts
06-Oct-18 14:32 34.197854 -118.366827 98 725ft 44kts
06-Oct-18 14:33 34.199531 -118.363451 89 725ft 15kts

Navigation Log

Ident Type
1. KSNA Airport
2. SLI Navaid
3. POPPR Fix
4. SMO Navaid
5. SILEX Fix
6. KBUR Airport